sensor_id;sensor_type;location;lat;lon;timestamp;pressure;altitude;pressure_sealevel;temperature;humidity
71126;BME280;58785;55.566;38.058;2024-01-27T00:01:50;100195.34;;;-1.73;74.88
71126;BME280;58785;55.566;38.058;2024-01-27T00:04:16;100205.09;;;-1.76;74.13
71126;BME280;58785;55.566;38.058;2024-01-27T00:06:42;100209.47;;;-1.77;74.21
71126;BME280;58785;55.566;38.058;2024-01-27T00:09:07;100207.44;;;-1.70;74.44
71126;BME280;58785;55.566;38.058;2024-01-27T00:11:33;100205.53;;;-1.66;74.21
71126;BME280;58785;55.566;38.058;2024-01-27T00:13:58;100196.84;;;-1.67;73.80
71126;BME280;58785;55.566;38.058;2024-01-27T00:16:28;100203.00;;;-1.68;74.20
71126;BME280;58785;55.566;38.058;2024-01-27T00:18:54;100198.81;;;-1.72;74.38
71126;BME280;58785;55.566;38.058;2024-01-27T00:21:19;100201.56;;;-1.75;74.56
71126;BME280;58785;55.566;38.058;2024-01-27T00:23:45;100209.47;;;-1.77;74.51
71126;BME280;58785;55.566;38.058;2024-01-27T00:26:10;100208.88;;;-1.83;74.61
71126;BME280;58785;55.566;38.058;2024-01-27T00:28:37;100203.78;;;-1.86;74.79
71126;BME280;58785;55.566;38.058;2024-01-27T00:31:03;100214.19;;;-1.85;74.34
71126;BME280;58785;55.566;38.058;2024-01-27T00:33:29;100220.91;;;-1.79;74.83
71126;BME280;58785;55.566;38.058;2024-01-27T00:35:55;100210.38;;;-1.78;74.17
71126;BME280;58785;55.566;38.058;2024-01-27T00:38:21;100206.84;;;-1.77;74.38
71126;BME280;58785;55.566;38.058;2024-01-27T00:40:46;100207.78;;;-1.78;73.92
71126;BME280;58785;55.566;38.058;2024-01-27T00:43:12;100211.31;;;-1.79;74.80
71126;BME280;58785;55.566;38.058;2024-01-27T00:45:37;100214.00;;;-1.80;74.38
71126;BME280;58785;55.566;38.058;2024-01-27T00:48:04;100214.78;;;-1.78;74.56
71126;BME280;58785;55.566;38.058;2024-01-27T00:50:30;100213.78;;;-1.76;74.45
71126;BME280;58785;55.566;38.058;2024-01-27T00:52:55;100205.94;;;-1.76;74.83
71126;BME280;58785;55.566;38.058;2024-01-27T00:55:21;100208.34;;;-1.71;74.04
71126;BME280;58785;55.566;38.058;2024-01-27T00:57:47;100211.75;;;-1.69;73.87
71126;BME280;58785;55.566;38.058;2024-01-27T01:00:13;100200.31;;;-1.66;73.94
71126;BME280;58785;55.566;38.058;2024-01-27T01:02:38;100199.66;;;-1.71;73.58
71126;BME280;58785;55.566;38.058;2024-01-27T01:05:06;100204.25;;;-1.77;74.50
71126;BME280;58785;55.566;38.058;2024-01-27T01:07:32;100206.94;;;-1.78;74.18
71126;BME280;58785;55.566;38.058;2024-01-27T01:09:57;100213.00;;;-1.78;74.57
71126;BME280;58785;55.566;38.058;2024-01-27T01:12:23;100210.66;;;-1.84;74.26
71126;BME280;58785;55.566;38.058;2024-01-27T01:14:51;100224.44;;;-1.80;74.35
71126;BME280;58785;55.566;38.058;2024-01-27T01:17:17;100222.59;;;-1.78;74.26
71126;BME280;58785;55.566;38.058;2024-01-27T01:19:43;100207.88;;;-1.81;74.38
71126;BME280;58785;55.566;38.058;2024-01-27T01:22:08;100213.72;;;-1.74;74.40
71126;BME280;58785;55.566;38.058;2024-01-27T01:24:34;100216.91;;;-1.67;73.95
71126;BME280;58785;55.566;38.058;2024-01-27T01:27:00;100216.00;;;-1.66;74.39
71126;BME280;58785;55.566;38.058;2024-01-27T01:29:26;100220.44;;;-1.68;73.70
71126;BME280;58785;55.566;38.058;2024-01-27T01:31:53;100219.63;;;-1.70;73.81
71126;BME280;58785;55.566;38.058;2024-01-27T01:34:18;100213.78;;;-1.76;74.03
71126;BME280;58785;55.566;38.058;2024-01-27T01:36:44;100210.47;;;-1.79;74.53
71126;BME280;58785;55.566;38.058;2024-01-27T01:39:11;100215.53;;;-1.76;73.98
71126;BME280;58785;55.566;38.058;2024-01-27T01:41:38;100216.47;;;-1.77;74.19
71126;BME280;58785;55.566;38.058;2024-01-27T01:44:04;100216.59;;;-1.80;74.28
71126;BME280;58785;55.566;38.058;2024-01-27T01:46:30;100223.72;;;-1.84;73.98
71126;BME280;58785;55.566;38.058;2024-01-27T01:48:56;100220.41;;;-1.87;73.97
71126;BME280;58785;55.566;38.058;2024-01-27T01:51:22;100224.19;;;-1.94;74.02
71126;BME280;58785;55.566;38.058;2024-01-27T01:53:49;100217.50;;;-2.02;74.67
71126;BME280;58785;55.566;38.058;2024-01-27T01:56:17;100220.09;;;-2.00;74.65
71126;BME280;58785;55.566;38.058;2024-01-27T01:58:44;100222.47;;;-1.95;74.55
71126;BME280;58785;55.566;38.058;2024-01-27T02:01:10;100220.78;;;-1.96;74.14
71126;BME280;58785;55.566;38.058;2024-01-27T02:03:36;100224.19;;;-1.94;73.82
71126;BME280;58785;55.566;38.058;2024-01-27T02:06:01;100222.69;;;-2.00;74.42
71126;BME280;58785;55.566;38.058;2024-01-27T02:08:27;100227.50;;;-2.11;74.24
71126;BME280;58785;55.566;38.058;2024-01-27T02:10:53;100237.94;;;-2.11;74.46
71126;BME280;58785;55.566;38.058;2024-01-27T02:13:22;100224.72;;;-2.07;74.30
71126;BME280;58785;55.566;38.058;2024-01-27T02:15:50;100233.41;;;-2.06;73.98
71126;BME280;58785;55.566;38.058;2024-01-27T02:18:36;100237.22;;;-2.15;73.94
71126;BME280;58785;55.566;38.058;2024-01-27T02:21:02;100232.22;;;-2.19;74.62
71126;BME280;58785;55.566;38.058;2024-01-27T02:23:28;100235.00;;;-2.24;74.36
71126;BME280;58785;55.566;38.058;2024-01-27T02:25:53;100227.38;;;-2.28;74.76
71126;BME280;58785;55.566;38.058;2024-01-27T02:28:20;100231.47;;;-2.23;74.22
71126;BME280;58785;55.566;38.058;2024-01-27T02:30:46;100234.88;;;-2.21;73.81
71126;BME280;58785;55.566;38.058;2024-01-27T02:33:11;100242.53;;;-2.16;74.44
71126;BME280;58785;55.566;38.058;2024-01-27T02:35:37;100246.19;;;-2.20;74.08
71126;BME280;58785;55.566;38.058;2024-01-27T02:38:03;100239.63;;;-2.31;74.18
71126;BME280;58785;55.566;38.058;2024-01-27T02:40:29;100237.22;;;-2.35;74.62
71126;BME280;58785;55.566;38.058;2024-01-27T02:42:54;100255.19;;;-2.27;74.17
71126;BME280;58785;55.566;38.058;2024-01-27T02:45:20;100249.03;;;-2.26;74.18
71126;BME280;58785;55.566;38.058;2024-01-27T02:47:46;100252.56;;;-2.27;74.02
71126;BME280;58785;55.566;38.058;2024-01-27T02:50:11;100250.28;;;-2.35;74.15
71126;BME280;58785;55.566;38.058;2024-01-27T02:52:37;100254.88;;;-2.42;73.97
71126;BME280;58785;55.566;38.058;2024-01-27T02:55:03;100246.34;;;-2.45;74.80
71126;BME280;58785;55.566;38.058;2024-01-27T02:57:31;100258.59;;;-2.47;74.25
71126;BME280;58785;55.566;38.058;2024-01-27T02:59:57;100263.03;;;-2.49;74.24
71126;BME280;58785;55.566;38.058;2024-01-27T03:02:22;100260.44;;;-2.49;74.28
71126;BME280;58785;55.566;38.058;2024-01-27T03:04:48;100263.16;;;-2.52;74.24
71126;BME280;58785;55.566;38.058;2024-01-27T03:07:14;100261.53;;;-2.55;74.66
71126;BME280;58785;55.566;38.058;2024-01-27T03:09:39;100264.25;;;-2.58;74.40
71126;BME280;58785;55.566;38.058;2024-01-27T03:12:05;100268.69;;;-2.60;74.51
71126;BME280;58785;55.566;38.058;2024-01-27T03:14:30;100272.25;;;-2.63;73.95
71126;BME280;58785;55.566;38.058;2024-01-27T03:16:56;100280.16;;;-2.64;74.94
71126;BME280;58785;55.566;38.058;2024-01-27T03:19:22;100274.31;;;-2.71;74.73
71126;BME280;58785;55.566;38.058;2024-01-27T03:21:47;100273.78;;;-2.79;74.80
71126;BME280;58785;55.566;38.058;2024-01-27T03:24:13;100276.31;;;-2.77;74.88
71126;BME280;58785;55.566;38.058;2024-01-27T03:26:39;100283.97;;;-2.73;74.17
71126;BME280;58785;55.566;38.058;2024-01-27T03:29:05;100280.41;;;-2.70;74.62
71126;BME280;58785;55.566;38.058;2024-01-27T03:31:32;100277.97;;;-2.75;74.38
71126;BME280;58785;55.566;38.058;2024-01-27T03:33:59;100295.66;;;-2.83;74.63
71126;BME280;58785;55.566;38.058;2024-01-27T03:36:25;100285.22;;;-2.83;74.36
71126;BME280;58785;55.566;38.058;2024-01-27T03:38:50;100286.94;;;-2.82;74.52
71126;BME280;58785;55.566;38.058;2024-01-27T03:41:16;100288.59;;;-2.79;74.59
71126;BME280;58785;55.566;38.058;2024-01-27T03:43:41;100288.47;;;-2.76;74.39
71126;BME280;58785;55.566;38.058;2024-01-27T03:46:07;100294.53;;;-2.76;73.48
71126;BME280;58785;55.566;38.058;2024-01-27T03:48:33;100301.56;;;-2.78;73.64
71126;BME280;58785;55.566;38.058;2024-01-27T03:51:01;100305.09;;;-2.79;73.77
71126;BME280;58785;55.566;38.058;2024-01-27T03:53:26;100306.84;;;-2.79;74.09
71126;BME280;58785;55.566;38.058;2024-01-27T03:55:52;100313.00;;;-2.82;73.89
71126;BME280;58785;55.566;38.058;2024-01-27T03:58:18;100310.47;;;-2.83;74.17
71126;BME280;58785;55.566;38.058;2024-01-27T04:00:44;100320.75;;;-2.79;74.28
71126;BME280;58785;55.566;38.058;2024-01-27T04:03:10;100320.81;;;-2.80;74.14
71126;BME280;58785;55.566;38.058;2024-01-27T04:05:35;100309.50;;;-2.81;74.00
71126;BME280;58785;55.566;38.058;2024-01-27T04:08:01;100321.66;;;-2.80;74.21
71126;BME280;58785;55.566;38.058;2024-01-27T04:10:27;100325.22;;;-2.82;73.88
71126;BME280;58785;55.566;38.058;2024-01-27T04:12:52;100320.06;;;-2.84;74.14
71126;BME280;58785;55.566;38.058;2024-01-27T04:15:18;100326.13;;;-2.83;73.77
71126;BME280;58785;55.566;38.058;2024-01-27T04:17:44;100327.75;;;-2.81;73.92
71126;BME280;58785;55.566;38.058;2024-01-27T04:20:10;100336.41;;;-2.79;74.31
71126;BME280;58785;55.566;38.058;2024-01-27T04:22:35;100346.09;;;-2.82;73.89
71126;BME280;58785;55.566;38.058;2024-01-27T04:25:01;100341.69;;;-2.80;73.79
71126;BME280;58785;55.566;38.058;2024-01-27T04:27:30;100339.75;;;-2.75;73.80
71126;BME280;58785;55.566;38.058;2024-01-27T04:29:56;100347.28;;;-2.68;74.15
71126;BME280;58785;55.566;38.058;2024-01-27T04:32:24;100340.94;;;-2.61;73.81
71126;BME280;58785;55.566;38.058;2024-01-27T04:34:50;100336.50;;;-2.58;73.36
71126;BME280;58785;55.566;38.058;2024-01-27T04:37:16;100322.59;;;-2.59;73.00
71126;BME280;58785;55.566;38.058;2024-01-27T04:39:42;100342.22;;;-2.49;73.16
71126;BME280;58785;55.566;38.058;2024-01-27T04:42:07;100332.78;;;-2.53;72.83
71126;BME280;58785;55.566;38.058;2024-01-27T04:44:34;100333.56;;;-2.51;73.28
71126;BME280;58785;55.566;38.058;2024-01-27T04:46:59;100343.00;;;-2.47;73.22
71126;BME280;58785;55.566;38.058;2024-01-27T04:49:25;100349.19;;;-2.49;72.77
71126;BME280;58785;55.566;38.058;2024-01-27T04:51:51;100341.66;;;-2.57;73.01
71126;BME280;58785;55.566;38.058;2024-01-27T04:54:16;100354.44;;;-2.51;73.40
71126;BME280;58785;55.566;38.058;2024-01-27T04:56:42;100361.75;;;-2.59;73.17
71126;BME280;58785;55.566;38.058;2024-01-27T04:59:08;100367.06;;;-2.62;73.39
71126;BME280;58785;55.566;38.058;2024-01-27T05:01:34;100373.31;;;-2.66;73.01
71126;BME280;58785;55.566;38.058;2024-01-27T05:03:59;100371.78;;;-2.72;73.68
71126;BME280;58785;55.566;38.058;2024-01-27T05:06:25;100374.63;;;-2.78;73.62
71126;BME280;58785;55.566;38.058;2024-01-27T05:08:51;100383.31;;;-2.77;73.79
71126;BME280;58785;55.566;38.058;2024-01-27T05:11:28;100381.63;;;-2.78;73.26
71126;BME280;58785;55.566;38.058;2024-01-27T05:13:53;100385.06;;;-2.78;73.40
71126;BME280;58785;55.566;38.058;2024-01-27T05:16:19;100397.34;;;-2.81;74.02
71126;BME280;58785;55.566;38.058;2024-01-27T05:18:44;100394.75;;;-2.81;73.33
71126;BME280;58785;55.566;38.058;2024-01-27T05:21:10;100389.31;;;-2.75;73.60
71126;BME280;58785;55.566;38.058;2024-01-27T05:23:36;100393.50;;;-2.71;73.74
71126;BME280;58785;55.566;38.058;2024-01-27T05:26:01;100389.94;;;-2.69;73.80
71126;BME280;58785;55.566;38.058;2024-01-27T05:28:27;100383.25;;;-2.76;72.94
71126;BME280;58785;55.566;38.058;2024-01-27T05:30:53;100395.16;;;-2.69;73.11
71126;BME280;58785;55.566;38.058;2024-01-27T05:33:18;100379.78;;;-2.76;73.15
71126;BME280;58785;55.566;38.058;2024-01-27T05:35:44;100410.00;;;-2.71;73.48
71126;BME280;58785;55.566;38.058;2024-01-27T05:38:09;100394.41;;;-2.72;72.91
71126;BME280;58785;55.566;38.058;2024-01-27T05:40:35;100394.47;;;-2.74;73.03
71126;BME280;58785;55.566;38.058;2024-01-27T05:43:01;100411.78;;;-2.71;73.06
71126;BME280;58785;55.566;38.058;2024-01-27T05:45:26;100401.56;;;-2.77;72.87
71126;BME280;58785;55.566;38.058;2024-01-27T05:47:52;100415.34;;;-2.74;73.12
71126;BME280;58785;55.566;38.058;2024-01-27T05:50:18;100402.03;;;-2.66;72.87
71126;BME280;58785;55.566;38.058;2024-01-27T05:52:43;100408.81;;;-2.62;72.76
71126;BME280;58785;55.566;38.058;2024-01-27T05:55:09;100409.59;;;-2.58;73.14
71126;BME280;58785;55.566;38.058;2024-01-27T05:57:36;100406.06;;;-2.57;72.91
71126;BME280;58785;55.566;38.058;2024-01-27T06:00:03;100413.69;;;-2.53;72.47
71126;BME280;58785;55.566;38.058;2024-01-27T06:02:31;100411.09;;;-2.53;72.70
71126;BME280;58785;55.566;38.058;2024-01-27T06:04:56;100412.91;;;-2.55;72.48
71126;BME280;58785;55.566;38.058;2024-01-27T06:07:22;100408.03;;;-2.64;72.44
71126;BME280;58785;55.566;38.058;2024-01-27T06:09:47;100417.41;;;-2.58;72.49
71126;BME280;58785;55.566;38.058;2024-01-27T06:12:13;100414.00;;;-2.61;73.00
71126;BME280;58785;55.566;38.058;2024-01-27T06:14:40;100419.22;;;-2.61;72.91
71126;BME280;58785;55.566;38.058;2024-01-27T06:17:06;100419.56;;;-2.70;72.88
71126;BME280;58785;55.566;38.058;2024-01-27T06:19:31;100424.94;;;-2.74;72.83
71126;BME280;58785;55.566;38.058;2024-01-27T06:21:57;100421.59;;;-2.78;73.14
71126;BME280;58785;55.566;38.058;2024-01-27T06:24:22;100421.59;;;-2.78;72.78
71126;BME280;58785;55.566;38.058;2024-01-27T06:26:48;100435.09;;;-2.67;73.09
71126;BME280;58785;55.566;38.058;2024-01-27T06:29:14;100426.81;;;-2.54;72.22
71126;BME280;58785;55.566;38.058;2024-01-27T06:31:40;100428.44;;;-2.50;72.91
71126;BME280;58785;55.566;38.058;2024-01-27T06:34:06;100427.19;;;-2.42;72.75
71126;BME280;58785;55.566;38.058;2024-01-27T06:36:31;100439.00;;;-2.32;71.86
71126;BME280;58785;55.566;38.058;2024-01-27T06:38:58;100440.34;;;-2.21;72.23
71126;BME280;58785;55.566;38.058;2024-01-27T06:41:23;100446.75;;;-2.07;71.51
71126;BME280;58785;55.566;38.058;2024-01-27T06:43:49;100436.66;;;-1.94;71.33
71126;BME280;58785;55.566;38.058;2024-01-27T06:46:14;100452.00;;;-1.85;71.08
71126;BME280;58785;55.566;38.058;2024-01-27T06:48:40;100457.50;;;-1.70;70.73
71126;BME280;58785;55.566;38.058;2024-01-27T06:51:06;100458.88;;;-1.60;70.62
71126;BME280;58785;55.566;38.058;2024-01-27T06:53:31;100465.81;;;-1.61;70.60
71126;BME280;58785;55.566;38.058;2024-01-27T06:55:57;100453.94;;;-1.68;70.71
71126;BME280;58785;55.566;38.058;2024-01-27T06:58:22;100469.25;;;-1.59;70.88
71126;BME280;58785;55.566;38.058;2024-01-27T07:00:48;100465.66;;;-1.56;70.32
71126;BME280;58785;55.566;38.058;2024-01-27T07:03:14;100477.09;;;-1.59;70.67
71126;BME280;58785;55.566;38.058;2024-01-27T07:05:40;100481.03;;;-1.49;70.68
71126;BME280;58785;55.566;38.058;2024-01-27T07:08:07;100469.13;;;-1.56;70.35
71126;BME280;58785;55.566;38.058;2024-01-27T07:10:34;100476.13;;;-1.56;70.94
71126;BME280;58785;55.566;38.058;2024-01-27T07:12:59;100469.59;;;-1.46;70.76
71126;BME280;58785;55.566;38.058;2024-01-27T07:15:25;100477.78;;;-1.33;70.37
71126;BME280;58785;55.566;38.058;2024-01-27T07:17:51;100472.19;;;-1.24;70.45
71126;BME280;58785;55.566;38.058;2024-01-27T07:20:16;100480.94;;;-1.25;70.41
71126;BME280;58785;55.566;38.058;2024-01-27T07:22:42;100472.97;;;-1.22;70.52
71126;BME280;58785;55.566;38.058;2024-01-27T07:25:08;100475.25;;;-1.14;69.96
71126;BME280;58785;55.566;38.058;2024-01-27T07:27:36;100478.66;;;-1.12;70.12
71126;BME280;58785;55.566;38.058;2024-01-27T07:30:02;100477.03;;;-1.15;69.59
71126;BME280;58785;55.566;38.058;2024-01-27T07:32:30;100480.41;;;-1.13;69.62
71126;BME280;58785;55.566;38.058;2024-01-27T07:34:56;100482.88;;;-1.08;69.53
71126;BME280;58785;55.566;38.058;2024-01-27T07:37:21;100482.59;;;-1.02;69.92
71126;BME280;58785;55.566;38.058;2024-01-27T07:39:47;100487.63;;;-0.98;70.00
71126;BME280;58785;55.566;38.058;2024-01-27T07:42:15;100495.34;;;-0.95;69.74
71126;BME280;58785;55.566;38.058;2024-01-27T07:44:43;100491.69;;;-0.91;69.60
71126;BME280;58785;55.566;38.058;2024-01-27T07:47:09;100492.03;;;-0.78;69.82
71126;BME280;58785;55.566;38.058;2024-01-27T07:49:34;100496.66;;;-0.64;69.25
71126;BME280;58785;55.566;38.058;2024-01-27T07:52:00;100499.84;;;-0.57;68.94
71126;BME280;58785;55.566;38.058;2024-01-27T07:54:26;100505.88;;;-0.55;68.95
71126;BME280;58785;55.566;38.058;2024-01-27T07:56:52;100509.25;;;-0.53;68.52
71126;BME280;58785;55.566;38.058;2024-01-27T07:59:18;100503.00;;;-0.31;68.71
71126;BME280;58785;55.566;38.058;2024-01-27T08:01:44;100505.50;;;-0.09;68.11
71126;BME280;58785;55.566;38.058;2024-01-27T08:04:09;100514.84;;;0.16;67.58
71126;BME280;58785;55.566;38.058;2024-01-27T08:06:46;100505.75;;;0.42;66.84
71126;BME280;58785;55.566;38.058;2024-01-27T08:09:11;100508.13;;;0.65;66.97
71126;BME280;58785;55.566;38.058;2024-01-27T08:11:37;100512.38;;;0.85;66.39
71126;BME280;58785;55.566;38.058;2024-01-27T08:14:03;100519.56;;;0.99;66.02
71126;BME280;58785;55.566;38.058;2024-01-27T08:16:28;100522.13;;;1.00;65.83
71126;BME280;58785;55.566;38.058;2024-01-27T08:18:54;100519.03;;;1.09;66.33
71126;BME280;58785;55.566;38.058;2024-01-27T08:21:19;100525.84;;;1.31;65.30
71126;BME280;58785;55.566;38.058;2024-01-27T08:23:45;100514.41;;;1.32;65.42
71126;BME280;58785;55.566;38.058;2024-01-27T08:26:12;100522.22;;;1.49;65.11
71126;BME280;58785;55.566;38.058;2024-01-27T08:28:38;100526.03;;;1.61;64.85
71126;BME280;58785;55.566;38.058;2024-01-27T08:31:04;100537.81;;;1.69;64.63
71126;BME280;58785;55.566;38.058;2024-01-27T08:33:30;100536.38;;;1.80;64.92
71126;BME280;58785;55.566;38.058;2024-01-27T08:35:56;100532.44;;;1.55;64.86
71126;BME280;58785;55.566;38.058;2024-01-27T08:38:22;100538.25;;;1.44;65.41
71126;BME280;58785;55.566;38.058;2024-01-27T08:40:48;100542.19;;;1.36;65.75
71126;BME280;58785;55.566;38.058;2024-01-27T08:43:13;100545.84;;;1.33;65.53
71126;BME280;58785;55.566;38.058;2024-01-27T08:45:39;100535.94;;;1.38;65.22
71126;BME280;58785;55.566;38.058;2024-01-27T08:48:06;100540.63;;;1.49;65.35
71126;BME280;58785;55.566;38.058;2024-01-27T08:50:32;100546.31;;;1.41;65.31
71126;BME280;58785;55.566;38.058;2024-01-27T08:52:58;100536.41;;;1.29;65.43
71126;BME280;58785;55.566;38.058;2024-01-27T08:55:23;100548.28;;;1.19;65.38
71126;BME280;58785;55.566;38.058;2024-01-27T08:57:50;100546.38;;;1.23;65.67
71126;BME280;58785;55.566;38.058;2024-01-27T09:00:16;100543.38;;;1.30;65.46
71126;BME280;58785;55.566;38.058;2024-01-27T09:02:42;100544.91;;;1.17;65.76
71126;BME280;58785;55.566;38.058;2024-01-27T09:05:08;100542.91;;;1.05;65.30
71126;BME280;58785;55.566;38.058;2024-01-27T09:07:34;100542.34;;;0.98;65.74
71126;BME280;58785;55.566;38.058;2024-01-27T09:10:00;100546.53;;;1.02;65.47
71126;BME280;58785;55.566;38.058;2024-01-27T09:12:26;100547.06;;;1.09;65.67
71126;BME280;58785;55.566;38.058;2024-01-27T09:14:52;100555.50;;;1.15;65.60
71126;BME280;58785;55.566;38.058;2024-01-27T09:17:20;100554.34;;;1.21;65.17
71126;BME280;58785;55.566;38.058;2024-01-27T09:19:45;100552.41;;;1.25;65.13
71126;BME280;58785;55.566;38.058;2024-01-27T09:22:11;100553.16;;;1.27;65.11
71126;BME280;58785;55.566;38.058;2024-01-27T09:24:37;100552.78;;;1.17;65.53
71126;BME280;58785;55.566;38.058;2024-01-27T09:27:03;100548.00;;;0.91;65.72
71126;BME280;58785;55.566;38.058;2024-01-27T09:29:29;100554.47;;;0.83;66.02
71126;BME280;58785;55.566;38.058;2024-01-27T09:31:55;100559.50;;;0.69;66.16
71126;BME280;58785;55.566;38.058;2024-01-27T09:34:20;100561.03;;;0.56;66.21
71126;BME280;58785;55.566;38.058;2024-01-27T09:36:46;100556.94;;;0.50;66.71
71126;BME280;58785;55.566;38.058;2024-01-27T09:39:12;100560.88;;;0.59;66.43
71126;BME280;58785;55.566;38.058;2024-01-27T09:41:38;100562.19;;;0.50;66.03
71126;BME280;58785;55.566;38.058;2024-01-27T09:44:04;100558.75;;;0.48;66.55
71126;BME280;58785;55.566;38.058;2024-01-27T09:46:31;100559.16;;;0.41;66.73
71126;BME280;58785;55.566;38.058;2024-01-27T09:48:57;100564.03;;;0.29;66.77
71126;BME280;58785;55.566;38.058;2024-01-27T09:51:25;100566.84;;;0.06;66.88
71126;BME280;58785;55.566;38.058;2024-01-27T09:53:52;100574.06;;;-0.18;67.54
71126;BME280;58785;55.566;38.058;2024-01-27T09:56:18;100564.97;;;-0.30;67.91
71126;BME280;58785;55.566;38.058;2024-01-27T09:58:45;100569.63;;;-0.36;67.85
71126;BME280;58785;55.566;38.058;2024-01-27T10:01:11;100573.56;;;-0.46;68.37
71126;BME280;58785;55.566;38.058;2024-01-27T10:03:41;100559.03;;;-0.53;68.18
71126;BME280;58785;55.566;38.058;2024-01-27T10:06:10;100571.03;;;-0.48;68.17
71126;BME280;58785;55.566;38.058;2024-01-27T10:08:37;100561.78;;;-0.56;68.25
71126;BME280;58785;55.566;38.058;2024-01-27T10:11:08;100571.34;;;-0.55;68.10
71126;BME280;58785;55.566;38.058;2024-01-27T10:13:35;100576.50;;;-0.54;67.92
71126;BME280;58785;55.566;38.058;2024-01-27T10:16:01;100575.28;;;-0.66;68.21
71126;BME280;58785;55.566;38.058;2024-01-27T10:18:28;100584.28;;;-0.73;68.53
71126;BME280;58785;55.566;38.058;2024-01-27T10:20:53;100581.94;;;-0.79;68.33
71126;BME280;58785;55.566;38.058;2024-01-27T10:23:19;100581.88;;;-0.77;67.85
71126;BME280;58785;55.566;38.058;2024-01-27T10:25:45;100589.91;;;-0.82;68.72
71126;BME280;58785;55.566;38.058;2024-01-27T10:28:11;100585.81;;;-0.88;68.93
71126;BME280;58785;55.566;38.058;2024-01-27T10:30:38;100586.66;;;-0.87;68.62
71126;BME280;58785;55.566;38.058;2024-01-27T10:33:04;100585.91;;;-0.91;68.61
71126;BME280;58785;55.566;38.058;2024-01-27T10:35:30;100597.78;;;-1.04;69.10
71126;BME280;58785;55.566;38.058;2024-01-27T10:37:56;100592.69;;;-1.07;69.59
71126;BME280;58785;55.566;38.058;2024-01-27T10:40:22;100601.25;;;-1.03;69.41
71126;BME280;58785;55.566;38.058;2024-01-27T10:43:10;100596.72;;;-0.98;69.65
71126;BME280;58785;55.566;38.058;2024-01-27T10:45:40;100588.19;;;-1.25;69.52
71126;BME280;58785;55.566;38.058;2024-01-27T10:48:08;100613.38;;;-1.23;69.67
71126;BME280;58785;55.566;38.058;2024-01-27T10:50:37;100606.81;;;-1.33;69.97
71126;BME280;58785;55.566;38.058;2024-01-27T10:53:04;100616.25;;;-1.29;70.57
71126;BME280;58785;55.566;38.058;2024-01-27T10:55:33;100633.16;;;-1.37;70.03
71126;BME280;58785;55.566;38.058;2024-01-27T10:58:01;100617.56;;;-1.40;70.26
71126;BME280;58785;55.566;38.058;2024-01-27T11:00:29;100629.44;;;-1.32;69.96
71126;BME280;58785;55.566;38.058;2024-01-27T11:02:58;100626.78;;;-1.30;70.09
71126;BME280;58785;55.566;38.058;2024-01-27T11:05:24;100633.94;;;-1.35;70.05
71126;BME280;58785;55.566;38.058;2024-01-27T11:07:53;100646.22;;;-1.37;70.11
71126;BME280;58785;55.566;38.058;2024-01-27T11:10:18;100636.91;;;-1.45;70.02
71126;BME280;58785;55.566;38.058;2024-01-27T11:12:45;100641.28;;;-1.45;70.27
71126;BME280;58785;55.566;38.058;2024-01-27T11:15:12;100643.69;;;-1.39;70.29
71126;BME280;58785;55.566;38.058;2024-01-27T11:17:41;100648.94;;;-1.40;70.83
71126;BME280;58785;55.566;38.058;2024-01-27T11:20:08;100643.78;;;-1.42;70.69
71126;BME280;58785;55.566;38.058;2024-01-27T11:22:35;100658.09;;;-1.29;70.39
71126;BME280;58785;55.566;38.058;2024-01-27T11:25:07;100657.28;;;-1.31;70.40
71126;BME280;58785;55.566;38.058;2024-01-27T11:27:34;100661.56;;;-1.28;70.30
71126;BME280;58785;55.566;38.058;2024-01-27T11:30:01;100652.81;;;-1.27;70.34
71126;BME280;58785;55.566;38.058;2024-01-27T11:32:30;100661.88;;;-1.14;70.55
71126;BME280;58785;55.566;38.058;2024-01-27T11:34:56;100667.25;;;-1.17;70.38
71126;BME280;58785;55.566;38.058;2024-01-27T11:37:22;100676.91;;;-1.19;70.37
71126;BME280;58785;55.566;38.058;2024-01-27T11:39:51;100670.78;;;-1.18;70.25
71126;BME280;58785;55.566;38.058;2024-01-27T11:42:18;100680.53;;;-1.23;70.57
71126;BME280;58785;55.566;38.058;2024-01-27T11:44:44;100677.13;;;-1.25;70.79
71126;BME280;58785;55.566;38.058;2024-01-27T11:47:19;100679.75;;;-1.25;70.48
71126;BME280;58785;55.566;38.058;2024-01-27T11:49:53;100683.94;;;-1.21;70.73
71126;BME280;58785;55.566;38.058;2024-01-27T11:52:20;100691.56;;;-1.15;71.04
71126;BME280;58785;55.566;38.058;2024-01-27T11:54:46;100686.34;;;-1.15;70.77
71126;BME280;58785;55.566;38.058;2024-01-27T11:57:11;100689.19;;;-1.21;71.04
71126;BME280;58785;55.566;38.058;2024-01-27T11:59:37;100680.91;;;-1.32;71.16
71126;BME280;58785;55.566;38.058;2024-01-27T12:02:03;100688.28;;;-1.43;71.02
71126;BME280;58785;55.566;38.058;2024-01-27T12:04:28;100688.22;;;-1.42;71.36
71126;BME280;58785;55.566;38.058;2024-01-27T12:06:54;100685.53;;;-1.39;71.50
71126;BME280;58785;55.566;38.058;2024-01-27T12:09:20;100700.38;;;-1.39;71.38
71126;BME280;58785;55.566;38.058;2024-01-27T12:11:46;100705.75;;;-1.44;71.30
71126;BME280;58785;55.566;38.058;2024-01-27T12:14:12;100702.34;;;-1.46;71.56
71126;BME280;58785;55.566;38.058;2024-01-27T12:16:38;100715.81;;;-1.33;71.43
71126;BME280;58785;55.566;38.058;2024-01-27T12:19:04;100709.50;;;-1.28;71.48
71126;BME280;58785;55.566;38.058;2024-01-27T12:21:30;100714.09;;;-1.34;71.21
71126;BME280;58785;55.566;38.058;2024-01-27T12:23:56;100716.94;;;-1.40;71.36
71126;BME280;58785;55.566;38.058;2024-01-27T12:26:24;100725.16;;;-1.50;72.17
71126;BME280;58785;55.566;38.058;2024-01-27T12:28:51;100723.47;;;-1.52;72.05
71126;BME280;58785;55.566;38.058;2024-01-27T12:31:18;100729.81;;;-1.58;72.42
71126;BME280;58785;55.566;38.058;2024-01-27T12:33:56;100735.03;;;-1.58;72.26
71126;BME280;58785;55.566;38.058;2024-01-27T12:36:24;100733.88;;;-1.51;72.12